Aérodrome :
LOGIN :

S'inscrire | Disclaimer

   EN    FR    IT 

 










Légende :    VFR   VFR Marginal   IFR   IFR Intensif   IFR Très Intensif
Visi : 
Plafond : 
>= 8 km
>= 3000ft
5 à 8 km
1000 à 3000 ft
1500m à 5 km
500 à 1000 ft
800 à 1500m
200 à 500 ft
< 800m
< 200 ft
Symboles :   Orages  Brouillard  Fortes neiges  Fortes précipitations  Vent > 20 kt
SIGMETs :   Divers  Orages  Givrage  Turbulence  Onde Orograph.  Cendres Volcan.






- Altitude de l'aérodrome : 297 ft
- Code IATA : UIP


LFRQ - Quimper Pluguffan

DERNIER METAR :
  • 100400Z AUTO 18006KT 9999 OVC028 07/06 Q1025

METARs EXPIRÉS :
  • 100330Z AUTO 21005KT 180V240 9999 BKN027 OVC230 06/06 Q1026
  • 100300Z AUTO 18005KT 9999 BKN031 OVC240 05/05 Q1027
  • 100230Z AUTO 18004KT 160V220 9999 FEW030 SCT250 03/03 Q1027
  • 100200Z AUTO 19003KT 8000 FEW032 04/03 Q1027
  • 100130Z AUTO VRB01KT 5000 BR NSC 03/03 Q1027

TAF TAF LFRQ
Valide du 09 à 18h jusqu'au 10 à 18h UTC


091700Z 0918/1018 30005KT 9999 SCT020
BECMG 0921/0923 22010KT
BECMG 1005/1007 22015G25KT
TEMPO 1010/1018 24015G35KT 4000 RADZ OVC006



MET'MAP, la Météo Aéronautique d'un coup d'oeil ! - Copyright ORBIFLY Décembre 2007 - Disclaimer

ORBIFLY MET'MAP TEAM :

Programmation & Développement : Alexandra Zaïnal
Sur une idée originale de : Baudouin d'Aumeries
Assistance à la programmation : Marc-Olivier Méhu
Soutien technique & logistique : Manuel Goepfert

Contact : metmap@orbifly.com




SOURCES & CREDITS :

   NOAA